Brave Wind — 3FTQ7 — position and weather

sailwx.info

Track history (hours):
 
Tides and Currents Weather Stations Pressure Air Temp Water Temp Dewpoint Dewpoint Depression Visibility Wind Speed Wind Dir Waves Ship Positions

Brave Wind

Last reported at 2017-Dec-18 20:36 UTC. Time now 2017-Dec-18 22:37 UTC.
Position N 01°26' E 103°54'.

Length 200 m; draft 12 m.

Type: Cargo ship. MMSI: 374318000.

Date/timePositionNaut miles runAvg speedWind from/ knotsBaromVisibWave heightAir tempDewpointWater temp
2017-Dec-18 20:36N 01°26' E 103°54'0 0.0
2017-Dec-18 20:18N 01°26' E 103°54'0 0.0
2017-Dec-18 19:12N 01°26' E 103°54'0 0.0
2017-Dec-18 18:53N 01°26' E 103°54'0 0.1
2017-Dec-18 18:30N 01°26' E 103°54'4 3.6
2017-Dec-18 17:26N 01°23' E 103°57'7 8.2
2017-Dec-18 16:34N 01°21' E 104°04'3 8.6
2017-Dec-18 16:14N 01°18' E 104°06'1 2.8
2017-Dec-18 15:56N 01°19' E 104°05'1 3.0
2017-Dec-18 15:28N 01°19' E 104°07'2 3.4
2017-Dec-18 14:59N 01°18' E 104°08'0 0.1
2017-Dec-18 14:10N 01°18' E 104°08'0 0.0
2017-Dec-18 13:52N 01°18' E 104°08'0 0.0
2017-Dec-18 13:22N 01°18' E 104°08'0 0.0
2017-Dec-18 01:07N 01°18' E 104°08'0 0.0
2017-Dec-18 00:46N 01°18' E 104°08'0 0.0
2017-Dec-18 00:13N 01°18' E 104°08'0 0.0
2017-Dec-17 23:52N 01°18' E 104°08'0 0.0
2017-Dec-17 22:31N 01°18' E 104°08'0 0.1
2017-Dec-17 22:25N 01°18' E 104°08'0 0.0
2017-Dec-17 15:01N 01°18' E 104°08'0 0.0
2017-Dec-17 06:16N 01°18' E 104°09'0 0.0
2017-Dec-17 05:52N 01°18' E 104°09'0 0.0
2017-Dec-17 05:28N 01°18' E 104°09'0 0.1
2017-Dec-17 01:13N 01°18' E 104°08'0 0.0
2017-Dec-16 20:37N 01°18' E 104°08'0 0.6
2017-Dec-16 20:22N 01°18' E 104°08'1 3.0
2017-Dec-16 19:59N 01°17' E 104°08'  
Track history (hours):
 
Tides and Currents Weather Stations Pressure Air Temp Water Temp Dewpoint Dewpoint Depression Visibility Wind Speed Wind Dir Waves Ship Positions

Brave Wind

Last reported at 2017-Dec-18 20:36 UTC. Time now 2017-Dec-18 22:37 UTC.
Position N 01°26' E 103°54'.

Length 200 m; draft 12 m.

Type: Cargo ship. MMSI: 374318000.

Date/timePositionNaut miles runAvg speedWind from/ knotsBaromVisibWave heightAir tempDewpointWater temp
2017-Dec-18 20:36N 01°26' E 103°54'0 0.0
2017-Dec-18 20:18N 01°26' E 103°54'0 0.0
2017-Dec-18 19:12N 01°26' E 103°54'0 0.0
2017-Dec-18 18:53N 01°26' E 103°54'0 0.1
2017-Dec-18 18:30N 01°26' E 103°54'4 3.6
2017-Dec-18 17:26N 01°23' E 103°57'7 8.2
2017-Dec-18 16:34N 01°21' E 104°04'3 8.6
2017-Dec-18 16:14N 01°18' E 104°06'1 2.8
2017-Dec-18 15:56N 01°19' E 104°05'1 3.0
2017-Dec-18 15:28N 01°19' E 104°07'2 3.4
2017-Dec-18 14:59N 01°18' E 104°08'0 0.1
2017-Dec-18 14:10N 01°18' E 104°08'0 0.0
2017-Dec-18 13:52N 01°18' E 104°08'0 0.0
2017-Dec-18 13:22N 01°18' E 104°08'0 0.0
2017-Dec-18 01:07N 01°18' E 104°08'0 0.0
2017-Dec-18 00:46N 01°18' E 104°08'0 0.0
2017-Dec-18 00:13N 01°18' E 104°08'0 0.0
2017-Dec-17 23:52N 01°18' E 104°08'0 0.0
2017-Dec-17 22:31N 01°18' E 104°08'0 0.1
2017-Dec-17 22:25N 01°18' E 104°08'0 0.0
2017-Dec-17 15:01N 01°18' E 104°08'0 0.0
2017-Dec-17 06:16N 01°18' E 104°09'0 0.0
2017-Dec-17 05:52N 01°18' E 104°09'0 0.0
2017-Dec-17 05:28N 01°18' E 104°09'0 0.1
2017-Dec-17 01:13N 01°18' E 104°08'0 0.0
2017-Dec-16 20:37N 01°18' E 104°08'0 0.6
2017-Dec-16 20:22N 01°18' E 104°08'1 3.0
2017-Dec-16 19:59N 01°17' E 104°08'  

Dump ship's entire track history